Terminal Aerodrome Forecast
Issued by NWS

Home | Current Version | Previous Version | Text Only | Print | Product List | Glossary Off
Versions: 1 2 3 4 5 6 7 8 9 10 11 12 13 14 15 16

000
FTUS43 KMPX 292000 AAA
TAFAXN
TAF AMD
KAXN 292001Z 2920/3018 20007KT P6SM SCT021
     FM292100 19005KT P6SM BKN110
     FM300400 17005KT P6SM VCSH SCT050 BKN080
     FM300900 20004KT P6SM OVC050
     FM301300 35012KT P6SM OVC020=

USA.gov is the U.S. government's official web portal to all federal, state and local government web resources and services.